Aviation Digital Data Service (ADDS)

Output produced by METARs form (2022 UTC 25 April 2018)
found at http://aviationweather.gov/adds/metars/
 
KSGR 251726Z 2518/2618 VRB05KT P6SM SCT040 
     FM252300 24008KT P6SM BKN060 
     FM260200 35011KT P6SM VCSH SCT025 BKN050 
     TEMPO 2602/2605 SHRA 
     FM260700 35013KT P6SM BKN050 
     FM261100 36009KT P6SM FEW080